Greenbush, Massachusetts
Current Conditions -  °F | °C
As of 7:35 PM on Sunday 21 Dec 2014 (Local Time) from KGHG Reporting Station
Overcast Overcast  
Wind Chill: 36°   Ceiling: 2400
Heat Index: 41°   Visibility: 10mi
Dew Point: 37°   Wind: 7mph
Humidity: 87%   Direction: 20°NNE
Pressure: 30.34"   Gusts: NA
Location:  42.18°N, 70.75°W
Report Text: KGHG 220035Z AUTO 02006KT 10SM SCT015 BKN024 OVC034 05/03 A3034 RMK AO2
Loading
Personal Weather Stations






























Interactive Weather Map New forecast layout! Learn more

10-Day Weather Forecast

Advertisements
Track Severe Weather on mobile